sensor_id;sensor_type;location;lat;lon;timestamp;pressure;altitude;pressure_sealevel;temperature
19040;BMP180;9652;49.014;12.052;2024-03-22T00:01:56;98494.00;;;9.90
19040;BMP180;9652;49.014;12.052;2024-03-22T00:04:23;98488.00;;;9.90
19040;BMP180;9652;49.014;12.052;2024-03-22T00:06:50;98485.00;;;9.90
19040;BMP180;9652;49.014;12.052;2024-03-22T00:09:17;98472.00;;;9.80
19040;BMP180;9652;49.014;12.052;2024-03-22T00:11:44;98485.00;;;9.80
19040;BMP180;9652;49.014;12.052;2024-03-22T00:14:12;98482.00;;;9.80
19040;BMP180;9652;49.014;12.052;2024-03-22T00:16:39;98465.00;;;9.70
19040;BMP180;9652;49.014;12.052;2024-03-22T00:19:07;98474.00;;;9.70
19040;BMP180;9652;49.014;12.052;2024-03-22T00:21:33;98475.00;;;9.70
19040;BMP180;9652;49.014;12.052;2024-03-22T00:24:00;98473.00;;;9.70
19040;BMP180;9652;49.014;12.052;2024-03-22T00:26:27;98482.00;;;9.60
19040;BMP180;9652;49.014;12.052;2024-03-22T00:28:54;98455.00;;;9.60
19040;BMP180;9652;49.014;12.052;2024-03-22T00:31:23;98468.00;;;9.50
19040;BMP180;9652;49.014;12.052;2024-03-22T00:33:50;98455.00;;;9.60
19040;BMP180;9652;49.014;12.052;2024-03-22T00:36:18;98455.00;;;9.50
19040;BMP180;9652;49.014;12.052;2024-03-22T00:38:46;98458.00;;;9.50
19040;BMP180;9652;49.014;12.052;2024-03-22T00:41:12;98449.00;;;9.50
19040;BMP180;9652;49.014;12.052;2024-03-22T00:43:39;98453.00;;;9.50
19040;BMP180;9652;49.014;12.052;2024-03-22T00:46:06;98450.00;;;9.40
19040;BMP180;9652;49.014;12.052;2024-03-22T00:48:33;98458.00;;;9.40
19040;BMP180;9652;49.014;12.052;2024-03-22T00:51:01;98455.00;;;9.40
19040;BMP180;9652;49.014;12.052;2024-03-22T00:53:29;98446.00;;;9.30
19040;BMP180;9652;49.014;12.052;2024-03-22T00:55:56;98456.00;;;9.30
19040;BMP180;9652;49.014;12.052;2024-03-22T00:58:26;98454.00;;;9.30
19040;BMP180;9652;49.014;12.052;2024-03-22T01:00:52;98446.00;;;9.30
19040;BMP180;9652;49.014;12.052;2024-03-22T01:03:20;98444.00;;;9.20
19040;BMP180;9652;49.014;12.052;2024-03-22T01:05:46;98447.00;;;9.20
19040;BMP180;9652;49.014;12.052;2024-03-22T01:08:13;98443.00;;;9.20
19040;BMP180;9652;49.014;12.052;2024-03-22T01:10:41;98431.00;;;9.20
19040;BMP180;9652;49.014;12.052;2024-03-22T01:13:09;98447.00;;;9.20
19040;BMP180;9652;49.014;12.052;2024-03-22T01:15:35;98439.00;;;9.20
19040;BMP180;9652;49.014;12.052;2024-03-22T01:18:03;98426.00;;;9.20
19040;BMP180;9652;49.014;12.052;2024-03-22T01:20:29;98440.00;;;9.10
19040;BMP180;9652;49.014;12.052;2024-03-22T01:22:56;98427.00;;;9.10
19040;BMP180;9652;49.014;12.052;2024-03-22T01:25:22;98427.00;;;9.10
19040;BMP180;9652;49.014;12.052;2024-03-22T01:27:50;98434.00;;;9.10
19040;BMP180;9652;49.014;12.052;2024-03-22T01:30:17;98411.00;;;9.10
19040;BMP180;9652;49.014;12.052;2024-03-22T01:32:44;98437.00;;;9.10
19040;BMP180;9652;49.014;12.052;2024-03-22T01:35:10;98438.00;;;9.00
19040;BMP180;9652;49.014;12.052;2024-03-22T01:37:37;98431.00;;;9.00
19040;BMP180;9652;49.014;12.052;2024-03-22T01:40:05;98434.00;;;9.00
19040;BMP180;9652;49.014;12.052;2024-03-22T01:42:32;98430.00;;;8.90
19040;BMP180;9652;49.014;12.052;2024-03-22T01:44:59;98413.00;;;8.90
19040;BMP180;9652;49.014;12.052;2024-03-22T01:47:26;98404.00;;;8.90
19040;BMP180;9652;49.014;12.052;2024-03-22T01:49:54;98426.00;;;8.80
19040;BMP180;9652;49.014;12.052;2024-03-22T01:52:22;98414.00;;;8.80
19040;BMP180;9652;49.014;12.052;2024-03-22T01:54:49;98424.00;;;8.80
19040;BMP180;9652;49.014;12.052;2024-03-22T01:57:16;98421.00;;;8.80
19040;BMP180;9652;49.014;12.052;2024-03-22T01:59:43;98422.00;;;8.80
19040;BMP180;9652;49.014;12.052;2024-03-22T02:02:12;98420.00;;;8.70
19040;BMP180;9652;49.014;12.052;2024-03-22T02:04:38;98414.00;;;8.70
19040;BMP180;9652;49.014;12.052;2024-03-22T02:07:05;98417.00;;;8.70
19040;BMP180;9652;49.014;12.052;2024-03-22T02:09:31;98415.00;;;8.70
19040;BMP180;9652;49.014;12.052;2024-03-22T02:11:58;98374.00;;;8.70
19040;BMP180;9652;49.014;12.052;2024-03-22T02:14:25;98400.00;;;8.60
19040;BMP180;9652;49.014;12.052;2024-03-22T02:16:52;98395.00;;;8.60
19040;BMP180;9652;49.014;12.052;2024-03-22T02:19:19;98393.00;;;8.60
19040;BMP180;9652;49.014;12.052;2024-03-22T02:21:46;98389.00;;;8.60
19040;BMP180;9652;49.014;12.052;2024-03-22T02:24:14;98379.00;;;8.60
19040;BMP180;9652;49.014;12.052;2024-03-22T02:26:41;98388.00;;;8.60
19040;BMP180;9652;49.014;12.052;2024-03-22T02:29:07;98392.00;;;8.50
19040;BMP180;9652;49.014;12.052;2024-03-22T02:31:34;98389.00;;;8.50
19040;BMP180;9652;49.014;12.052;2024-03-22T02:34:00;98385.00;;;8.50
19040;BMP180;9652;49.014;12.052;2024-03-22T02:36:29;98367.00;;;8.50
19040;BMP180;9652;49.014;12.052;2024-03-22T02:38:55;98378.00;;;8.50
19040;BMP180;9652;49.014;12.052;2024-03-22T02:41:23;98381.00;;;8.40
19040;BMP180;9652;49.014;12.052;2024-03-22T02:43:49;98374.00;;;8.40
19040;BMP180;9652;49.014;12.052;2024-03-22T02:46:16;98359.00;;;8.30
19040;BMP180;9652;49.014;12.052;2024-03-22T02:48:42;98377.00;;;8.30
19040;BMP180;9652;49.014;12.052;2024-03-22T02:51:10;98365.00;;;8.30
19040;BMP180;9652;49.014;12.052;2024-03-22T02:53:36;98370.00;;;8.20
19040;BMP180;9652;49.014;12.052;2024-03-22T02:56:04;98368.00;;;8.20
19040;BMP180;9652;49.014;12.052;2024-03-22T02:58:31;98366.00;;;8.20
19040;BMP180;9652;49.014;12.052;2024-03-22T03:01:00;98373.00;;;8.20
19040;BMP180;9652;49.014;12.052;2024-03-22T03:03:28;98353.00;;;8.20
19040;BMP180;9652;49.014;12.052;2024-03-22T03:05:55;98363.00;;;8.20
19040;BMP180;9652;49.014;12.052;2024-03-22T03:08:21;98365.00;;;8.10
19040;BMP180;9652;49.014;12.052;2024-03-22T03:10:48;98347.00;;;8.10
19040;BMP180;9652;49.014;12.052;2024-03-22T03:13:14;98364.00;;;8.10
19040;BMP180;9652;49.014;12.052;2024-03-22T03:15:43;98356.00;;;7.90
19040;BMP180;9652;49.014;12.052;2024-03-22T03:18:09;98353.00;;;8.00
19040;BMP180;9652;49.014;12.052;2024-03-22T03:20:36;98353.00;;;8.00
19040;BMP180;9652;49.014;12.052;2024-03-22T03:23:03;98360.00;;;8.00
19040;BMP180;9652;49.014;12.052;2024-03-22T03:25:30;98353.00;;;8.00
19040;BMP180;9652;49.014;12.052;2024-03-22T03:27:57;98325.00;;;8.00
19040;BMP180;9652;49.014;12.052;2024-03-22T03:30:24;98332.00;;;8.00
19040;BMP180;9652;49.014;12.052;2024-03-22T03:32:52;98347.00;;;8.00
19040;BMP180;9652;49.014;12.052;2024-03-22T03:35:19;98293.00;;;8.10
19040;BMP180;9652;49.014;12.052;2024-03-22T03:37:45;98353.00;;;8.10
19040;BMP180;9652;49.014;12.052;2024-03-22T03:40:12;98336.00;;;8.20
19040;BMP180;9652;49.014;12.052;2024-03-22T03:42:39;98355.00;;;8.20
19040;BMP180;9652;49.014;12.052;2024-03-22T03:45:07;98340.00;;;8.20
19040;BMP180;9652;49.014;12.052;2024-03-22T03:47:33;98349.00;;;8.30
19040;BMP180;9652;49.014;12.052;2024-03-22T03:50:01;98360.00;;;8.30
19040;BMP180;9652;49.014;12.052;2024-03-22T03:52:28;98351.00;;;8.30
19040;BMP180;9652;49.014;12.052;2024-03-22T03:54:55;98343.00;;;8.40
19040;BMP180;9652;49.014;12.052;2024-03-22T03:57:21;98347.00;;;8.40
19040;BMP180;9652;49.014;12.052;2024-03-22T03:59:48;98337.00;;;8.50
19040;BMP180;9652;49.014;12.052;2024-03-22T04:02:14;98343.00;;;8.50
19040;BMP180;9652;49.014;12.052;2024-03-22T04:04:41;98327.00;;;8.50
19040;BMP180;9652;49.014;12.052;2024-03-22T04:07:09;98334.00;;;8.60
19040;BMP180;9652;49.014;12.052;2024-03-22T04:09:36;98329.00;;;8.60
19040;BMP180;9652;49.014;12.052;2024-03-22T04:12:02;98329.00;;;8.60
19040;BMP180;9652;49.014;12.052;2024-03-22T04:14:29;98316.00;;;8.60
19040;BMP180;9652;49.014;12.052;2024-03-22T04:16:55;98313.00;;;8.60
19040;BMP180;9652;49.014;12.052;2024-03-22T04:19:22;98329.00;;;8.60
19040;BMP180;9652;49.014;12.052;2024-03-22T04:21:49;98312.00;;;8.60
19040;BMP180;9652;49.014;12.052;2024-03-22T04:24:18;98324.00;;;8.60
19040;BMP180;9652;49.014;12.052;2024-03-22T04:26:44;98321.00;;;8.60
19040;BMP180;9652;49.014;12.052;2024-03-22T04:29:11;98329.00;;;8.60
19040;BMP180;9652;49.014;12.052;2024-03-22T04:31:37;98325.00;;;8.60
19040;BMP180;9652;49.014;12.052;2024-03-22T04:34:04;98312.00;;;8.60
19040;BMP180;9652;49.014;12.052;2024-03-22T04:36:31;98336.00;;;8.60
19040;BMP180;9652;49.014;12.052;2024-03-22T04:38:58;98336.00;;;8.60
19040;BMP180;9652;49.014;12.052;2024-03-22T04:41:27;98337.00;;;8.60
19040;BMP180;9652;49.014;12.052;2024-03-22T04:43:54;98333.00;;;8.50
19040;BMP180;9652;49.014;12.052;2024-03-22T04:46:21;98334.00;;;8.50
19040;BMP180;9652;49.014;12.052;2024-03-22T04:48:48;98332.00;;;8.50
19040;BMP180;9652;49.014;12.052;2024-03-22T04:51:14;98337.00;;;8.50
19040;BMP180;9652;49.014;12.052;2024-03-22T04:53:41;98333.00;;;8.50
19040;BMP180;9652;49.014;12.052;2024-03-22T04:56:07;98341.00;;;8.50
19040;BMP180;9652;49.014;12.052;2024-03-22T04:58:36;98341.00;;;8.50
19040;BMP180;9652;49.014;12.052;2024-03-22T05:01:02;98344.00;;;8.40
19040;BMP180;9652;49.014;12.052;2024-03-22T05:03:29;98334.00;;;8.40
19040;BMP180;9652;49.014;12.052;2024-03-22T05:05:56;98316.00;;;8.40
19040;BMP180;9652;49.014;12.052;2024-03-22T05:08:23;98327.00;;;8.40
19040;BMP180;9652;49.014;12.052;2024-03-22T05:10:49;98324.00;;;8.40
19040;BMP180;9652;49.014;12.052;2024-03-22T05:13:16;98332.00;;;8.40
19040;BMP180;9652;49.014;12.052;2024-03-22T05:15:43;98320.00;;;8.30
19040;BMP180;9652;49.014;12.052;2024-03-22T05:18:10;98332.00;;;8.30
19040;BMP180;9652;49.014;12.052;2024-03-22T05:20:37;98333.00;;;8.20
19040;BMP180;9652;49.014;12.052;2024-03-22T05:23:04;98318.00;;;8.20
19040;BMP180;9652;49.014;12.052;2024-03-22T05:25:30;98335.00;;;8.20
19040;BMP180;9652;49.014;12.052;2024-03-22T05:27:57;98332.00;;;8.10
19040;BMP180;9652;49.014;12.052;2024-03-22T05:30:23;98314.00;;;8.10
19040;BMP180;9652;49.014;12.052;2024-03-22T05:32:51;98326.00;;;8.10
19040;BMP180;9652;49.014;12.052;2024-03-22T05:35:17;98335.00;;;8.10
19040;BMP180;9652;49.014;12.052;2024-03-22T05:37:46;98260.00;;;8.00
19040;BMP180;9652;49.014;12.052;2024-03-22T05:40:12;98309.00;;;8.00
19040;BMP180;9652;49.014;12.052;2024-03-22T05:42:39;98301.00;;;8.00
19040;BMP180;9652;49.014;12.052;2024-03-22T05:45:06;98315.00;;;8.00
19040;BMP180;9652;49.014;12.052;2024-03-22T05:47:34;98311.00;;;8.00
19040;BMP180;9652;49.014;12.052;2024-03-22T05:50:01;98311.00;;;8.00
19040;BMP180;9652;49.014;12.052;2024-03-22T05:52:28;98307.00;;;8.00
19040;BMP180;9652;49.014;12.052;2024-03-22T05:54:54;98333.00;;;8.00
19040;BMP180;9652;49.014;12.052;2024-03-22T05:57:22;98308.00;;;8.00
19040;BMP180;9652;49.014;12.052;2024-03-22T05:59:48;98320.00;;;8.00
19040;BMP180;9652;49.014;12.052;2024-03-22T06:02:15;98325.00;;;8.00
19040;BMP180;9652;49.014;12.052;2024-03-22T06:04:42;98315.00;;;8.10
19040;BMP180;9652;49.014;12.052;2024-03-22T06:07:11;98272.00;;;8.10
19040;BMP180;9652;49.014;12.052;2024-03-22T06:09:37;98322.00;;;8.10
19040;BMP180;9652;49.014;12.052;2024-03-22T06:12:12;98329.00;;;8.20
19040;BMP180;9652;49.014;12.052;2024-03-22T06:14:39;98325.00;;;8.20
19040;BMP180;9652;49.014;12.052;2024-03-22T06:17:06;98316.00;;;8.30
19040;BMP180;9652;49.014;12.052;2024-03-22T06:19:33;98337.00;;;8.30
19040;BMP180;9652;49.014;12.052;2024-03-22T06:22:00;98100.00;;;8.40
19040;BMP180;9652;49.014;12.052;2024-03-22T06:24:27;98329.00;;;8.40
19040;BMP180;9652;49.014;12.052;2024-03-22T06:26:55;98303.00;;;8.50
19040;BMP180;9652;49.014;12.052;2024-03-22T06:29:21;98335.00;;;8.60
19040;BMP180;9652;49.014;12.052;2024-03-22T06:31:48;98323.00;;;8.60
19040;BMP180;9652;49.014;12.052;2024-03-22T06:34:16;98330.00;;;8.70
19040;BMP180;9652;49.014;12.052;2024-03-22T06:36:43;98320.00;;;8.70
19040;BMP180;9652;49.014;12.052;2024-03-22T06:39:09;98311.00;;;8.70
19040;BMP180;9652;49.014;12.052;2024-03-22T06:41:37;98316.00;;;8.80
19040;BMP180;9652;49.014;12.052;2024-03-22T06:44:03;98314.00;;;8.80
19040;BMP180;9652;49.014;12.052;2024-03-22T06:46:31;98309.00;;;8.90
19040;BMP180;9652;49.014;12.052;2024-03-22T06:48:58;98300.00;;;8.90
19040;BMP180;9652;49.014;12.052;2024-03-22T06:51:25;98295.00;;;8.90
19040;BMP180;9652;49.014;12.052;2024-03-22T06:53:53;98301.00;;;9.10
19040;BMP180;9652;49.014;12.052;2024-03-22T06:56:22;98282.00;;;9.20
19040;BMP180;9652;49.014;12.052;2024-03-22T06:58:49;98289.00;;;9.30
19040;BMP180;9652;49.014;12.052;2024-03-22T07:01:17;98290.00;;;9.30
19040;BMP180;9652;49.014;12.052;2024-03-22T07:03:43;98280.00;;;9.40
19040;BMP180;9652;49.014;12.052;2024-03-22T07:06:11;98284.00;;;9.50
19040;BMP180;9652;49.014;12.052;2024-03-22T07:08:39;98279.00;;;9.60
19040;BMP180;9652;49.014;12.052;2024-03-22T07:11:11;98278.00;;;9.70
19040;BMP180;9652;49.014;12.052;2024-03-22T07:13:38;98290.00;;;9.80
19040;BMP180;9652;49.014;12.052;2024-03-22T07:16:06;98298.00;;;9.80
19040;BMP180;9652;49.014;12.052;2024-03-22T07:18:33;98294.00;;;9.90
19040;BMP180;9652;49.014;12.052;2024-03-22T07:20:59;98302.00;;;9.90
19040;BMP180;9652;49.014;12.052;2024-03-22T07:23:28;98259.00;;;10.00
19040;BMP180;9652;49.014;12.052;2024-03-22T07:25:54;98293.00;;;10.10
19040;BMP180;9652;49.014;12.052;2024-03-22T07:28:21;98288.00;;;10.10
19040;BMP180;9652;49.014;12.052;2024-03-22T07:30:47;98285.00;;;10.20
19040;BMP180;9652;49.014;12.052;2024-03-22T07:33:16;98310.00;;;10.30
19040;BMP180;9652;49.014;12.052;2024-03-22T07:35:44;98291.00;;;10.30
19040;BMP180;9652;49.014;12.052;2024-03-22T07:38:11;98285.00;;;10.50
19040;BMP180;9652;49.014;12.052;2024-03-22T07:40:37;98262.00;;;10.40
19040;BMP180;9652;49.014;12.052;2024-03-22T07:43:04;98287.00;;;10.70
19040;BMP180;9652;49.014;12.052;2024-03-22T07:45:34;98267.00;;;10.70
19040;BMP180;9652;49.014;12.052;2024-03-22T07:48:01;98285.00;;;10.80
19040;BMP180;9652;49.014;12.052;2024-03-22T07:50:29;98282.00;;;10.80
19040;BMP180;9652;49.014;12.052;2024-03-22T07:52:56;98273.00;;;10.90
19040;BMP180;9652;49.014;12.052;2024-03-22T07:55:22;98269.00;;;10.90
19040;BMP180;9652;49.014;12.052;2024-03-22T07:57:50;98288.00;;;11.00
19040;BMP180;9652;49.014;12.052;2024-03-22T08:00:17;98285.00;;;11.00
19040;BMP180;9652;49.014;12.052;2024-03-22T08:02:45;98289.00;;;11.10
19040;BMP180;9652;49.014;12.052;2024-03-22T08:05:11;98284.00;;;11.10
19040;BMP180;9652;49.014;12.052;2024-03-22T08:07:40;98281.00;;;11.20
19040;BMP180;9652;49.014;12.052;2024-03-22T08:10:08;98259.00;;;11.20
19040;BMP180;9652;49.014;12.052;2024-03-22T08:12:35;98265.00;;;11.30
19040;BMP180;9652;49.014;12.052;2024-03-22T08:15:01;98266.00;;;11.40
19040;BMP180;9652;49.014;12.052;2024-03-22T08:17:28;98265.00;;;11.40
19040;BMP180;9652;49.014;12.052;2024-03-22T08:19:54;98235.00;;;11.50
19040;BMP180;9652;49.014;12.052;2024-03-22T08:22:22;98249.00;;;11.50
19040;BMP180;9652;49.014;12.052;2024-03-22T08:24:49;98200.00;;;11.60
19040;BMP180;9652;49.014;12.052;2024-03-22T08:27:16;98254.00;;;11.60
19040;BMP180;9652;49.014;12.052;2024-03-22T08:29:43;98256.00;;;11.60
19040;BMP180;9652;49.014;12.052;2024-03-22T08:32:10;98254.00;;;11.60
19040;BMP180;9652;49.014;12.052;2024-03-22T08:34:36;98246.00;;;11.60
19040;BMP180;9652;49.014;12.052;2024-03-22T08:37:03;98231.00;;;11.60
19040;BMP180;9652;49.014;12.052;2024-03-22T08:39:30;98250.00;;;11.60
19040;BMP180;9652;49.014;12.052;2024-03-22T08:41:58;98240.00;;;11.70
19040;BMP180;9652;49.014;12.052;2024-03-22T08:44:24;98246.00;;;11.70
19040;BMP180;9652;49.014;12.052;2024-03-22T08:46:52;98188.00;;;11.80
19040;BMP180;9652;49.014;12.052;2024-03-22T08:49:18;98237.00;;;11.90
19040;BMP180;9652;49.014;12.052;2024-03-22T08:51:46;98220.00;;;12.00
19040;BMP180;9652;49.014;12.052;2024-03-22T08:54:12;98243.00;;;12.00
19040;BMP180;9652;49.014;12.052;2024-03-22T08:56:39;98245.00;;;12.10
19040;BMP180;9652;49.014;12.052;2024-03-22T08:59:06;98225.00;;;12.10
19040;BMP180;9652;49.014;12.052;2024-03-22T09:01:33;98258.00;;;12.20
19040;BMP180;9652;49.014;12.052;2024-03-22T09:03:59;98239.00;;;12.20
19040;BMP180;9652;49.014;12.052;2024-03-22T09:06:26;98228.00;;;12.20
19040;BMP180;9652;49.014;12.052;2024-03-22T09:08:52;98234.00;;;12.30
19040;BMP180;9652;49.014;12.052;2024-03-22T09:11:23;98239.00;;;12.30
19040;BMP180;9652;49.014;12.052;2024-03-22T09:13:52;98233.00;;;12.40
19040;BMP180;9652;49.014;12.052;2024-03-22T09:16:20;98228.00;;;12.50
19040;BMP180;9652;49.014;12.052;2024-03-22T09:18:47;98221.00;;;12.60
19040;BMP180;9652;49.014;12.052;2024-03-22T09:21:14;98214.00;;;12.70
19040;BMP180;9652;49.014;12.052;2024-03-22T09:23:40;98207.00;;;12.90
19040;BMP180;9652;49.014;12.052;2024-03-22T09:26:07;98213.00;;;13.00
19040;BMP180;9652;49.014;12.052;2024-03-22T09:28:34;98211.00;;;13.10
19040;BMP180;9652;49.014;12.052;2024-03-22T09:31:04;98206.00;;;13.20
19040;BMP180;9652;49.014;12.052;2024-03-22T09:33:32;98215.00;;;13.40
19040;BMP180;9652;49.014;12.052;2024-03-22T09:35:59;98191.00;;;13.60
19040;BMP180;9652;49.014;12.052;2024-03-22T09:38:26;98205.00;;;13.80
19040;BMP180;9652;49.014;12.052;2024-03-22T09:40:53;98214.00;;;14.10
19040;BMP180;9652;49.014;12.052;2024-03-22T09:43:21;98182.00;;;14.30
19040;BMP180;9652;49.014;12.052;2024-03-22T09:45:48;98199.00;;;14.50
19040;BMP180;9652;49.014;12.052;2024-03-22T09:48:18;98187.00;;;14.70
19040;BMP180;9652;49.014;12.052;2024-03-22T09:50:46;98192.00;;;14.90
19040;BMP180;9652;49.014;12.052;2024-03-22T09:53:19;98183.00;;;15.00
19040;BMP180;9652;49.014;12.052;2024-03-22T09:55:48;98197.00;;;15.20
19040;BMP180;9652;49.014;12.052;2024-03-22T09:58:15;98183.00;;;15.30
19040;BMP180;9652;49.014;12.052;2024-03-22T10:00:42;98180.00;;;15.40
19040;BMP180;9652;49.014;12.052;2024-03-22T10:03:10;98182.00;;;15.50
19040;BMP180;9652;49.014;12.052;2024-03-22T10:05:37;98179.00;;;15.60
19040;BMP180;9652;49.014;12.052;2024-03-22T10:08:06;98184.00;;;15.60
19040;BMP180;9652;49.014;12.052;2024-03-22T10:10:32;98188.00;;;15.70
19040;BMP180;9652;49.014;12.052;2024-03-22T10:13:01;98179.00;;;15.80
19040;BMP180;9652;49.014;12.052;2024-03-22T10:15:27;98183.00;;;15.90
19040;BMP180;9652;49.014;12.052;2024-03-22T10:17:57;98177.00;;;15.90
19040;BMP180;9652;49.014;12.052;2024-03-22T10:20:24;98177.00;;;16.00
19040;BMP180;9652;49.014;12.052;2024-03-22T10:22:57;98176.00;;;16.10
19040;BMP180;9652;49.014;12.052;2024-03-22T10:25:26;98165.00;;;16.10
19040;BMP180;9652;49.014;12.052;2024-03-22T10:27:54;98163.00;;;16.10
19040;BMP180;9652;49.014;12.052;2024-03-22T10:30:22;98151.00;;;16.20
19040;BMP180;9652;49.014;12.052;2024-03-22T10:32:50;98154.00;;;16.30
19040;BMP180;9652;49.014;12.052;2024-03-22T10:35:17;98147.00;;;16.40
19040;BMP180;9652;49.014;12.052;2024-03-22T10:37:45;98119.00;;;16.50
19040;BMP180;9652;49.014;12.052;2024-03-22T10:40:12;98128.00;;;16.60
19040;BMP180;9652;49.014;12.052;2024-03-22T10:42:42;98146.00;;;16.80
19040;BMP180;9652;49.014;12.052;2024-03-22T10:45:11;98143.00;;;16.90
19040;BMP180;9652;49.014;12.052;2024-03-22T10:47:39;98141.00;;;16.90
19040;BMP180;9652;49.014;12.052;2024-03-22T10:50:08;98069.00;;;17.00
19040;BMP180;9652;49.014;12.052;2024-03-22T10:52:40;98128.00;;;17.10
19040;BMP180;9652;49.014;12.052;2024-03-22T10:55:16;98131.00;;;17.20
19040;BMP180;9652;49.014;12.052;2024-03-22T10:57:47;98123.00;;;17.20
19040;BMP180;9652;49.014;12.052;2024-03-22T11:00:14;98107.00;;;17.30
19040;BMP180;9652;49.014;12.052;2024-03-22T11:02:44;98122.00;;;17.40
19040;BMP180;9652;49.014;12.052;2024-03-22T11:05:17;98107.00;;;17.50
19040;BMP180;9652;49.014;12.052;2024-03-22T11:07:44;98093.00;;;17.70
19040;BMP180;9652;49.014;12.052;2024-03-22T11:10:12;98099.00;;;17.80
19040;BMP180;9652;49.014;12.052;2024-03-22T11:12:40;98098.00;;;17.90
19040;BMP180;9652;49.014;12.052;2024-03-22T11:15:09;98091.00;;;17.90
19040;BMP180;9652;49.014;12.052;2024-03-22T11:17:38;98080.00;;;18.00
19040;BMP180;9652;49.014;12.052;2024-03-22T11:20:05;98086.00;;;18.00
19040;BMP180;9652;49.014;12.052;2024-03-22T11:22:32;98085.00;;;18.00
19040;BMP180;9652;49.014;12.052;2024-03-22T11:24:58;98068.00;;;18.00
19040;BMP180;9652;49.014;12.052;2024-03-22T11:27:25;98075.00;;;18.00
19040;BMP180;9652;49.014;12.052;2024-03-22T11:29:52;98058.00;;;18.10
19040;BMP180;9652;49.014;12.052;2024-03-22T11:32:22;98076.00;;;18.10
19040;BMP180;9652;49.014;12.052;2024-03-22T11:34:50;98064.00;;;18.10
19040;BMP180;9652;49.014;12.052;2024-03-22T11:37:16;98056.00;;;18.00
19040;BMP180;9652;49.014;12.052;2024-03-22T11:39:43;98047.00;;;18.00
19040;BMP180;9652;49.014;12.052;2024-03-22T11:42:11;98043.00;;;17.90
19040;BMP180;9652;49.014;12.052;2024-03-22T11:44:40;98024.00;;;17.80
19040;BMP180;9652;49.014;12.052;2024-03-22T11:47:07;98042.00;;;17.80
19040;BMP180;9652;49.014;12.052;2024-03-22T11:49:36;98035.00;;;17.70
19040;BMP180;9652;49.014;12.052;2024-03-22T11:52:03;98006.00;;;17.60
19040;BMP180;9652;49.014;12.052;2024-03-22T11:54:30;98022.00;;;17.60
19040;BMP180;9652;49.014;12.052;2024-03-22T11:56:57;98022.00;;;17.60
19040;BMP180;9652;49.014;12.052;2024-03-22T11:59:24;98021.00;;;17.60
19040;BMP180;9652;49.014;12.052;2024-03-22T12:01:51;98021.00;;;17.60
19040;BMP180;9652;49.014;12.052;2024-03-22T12:04:18;98010.00;;;17.60
19040;BMP180;9652;49.014;12.052;2024-03-22T12:06:46;98006.00;;;17.70
19040;BMP180;9652;49.014;12.052;2024-03-22T12:09:14;97987.00;;;17.80
19040;BMP180;9652;49.014;12.052;2024-03-22T12:11:41;97997.00;;;18.00
19040;BMP180;9652;49.014;12.052;2024-03-22T12:14:08;97989.00;;;18.00
19040;BMP180;9652;49.014;12.052;2024-03-22T12:16:35;97982.00;;;18.10
19040;BMP180;9652;49.014;12.052;2024-03-22T12:19:02;97977.00;;;18.30
19040;BMP180;9652;49.014;12.052;2024-03-22T12:21:29;97968.00;;;18.40
19040;BMP180;9652;49.014;12.052;2024-03-22T12:23:57;97972.00;;;18.50
19040;BMP180;9652;49.014;12.052;2024-03-22T12:26:24;97937.00;;;18.60
19040;BMP180;9652;49.014;12.052;2024-03-22T12:28:51;97953.00;;;18.70
19040;BMP180;9652;49.014;12.052;2024-03-22T12:31:18;97950.00;;;18.80
19040;BMP180;9652;49.014;12.052;2024-03-22T12:33:45;97944.00;;;18.90
19040;BMP180;9652;49.014;12.052;2024-03-22T12:36:12;97908.00;;;19.10
19040;BMP180;9652;49.014;12.052;2024-03-22T12:38:40;97941.00;;;19.20
19040;BMP180;9652;49.014;12.052;2024-03-22T12:41:08;97920.00;;;19.30
19040;BMP180;9652;49.014;12.052;2024-03-22T12:43:35;97931.00;;;19.40
19040;BMP180;9652;49.014;12.052;2024-03-22T12:46:03;97925.00;;;19.50
19040;BMP180;9652;49.014;12.052;2024-03-22T12:48:29;97919.00;;;19.50
19040;BMP180;9652;49.014;12.052;2024-03-22T12:50:57;97921.00;;;19.50
19040;BMP180;9652;49.014;12.052;2024-03-22T12:53:24;97905.00;;;19.60
19040;BMP180;9652;49.014;12.052;2024-03-22T12:55:51;97906.00;;;19.60
19040;BMP180;9652;49.014;12.052;2024-03-22T12:58:19;97909.00;;;19.70
19040;BMP180;9652;49.014;12.052;2024-03-22T13:00:46;97898.00;;;19.70
19040;BMP180;9652;49.014;12.052;2024-03-22T13:03:13;97889.00;;;19.60
19040;BMP180;9652;49.014;12.052;2024-03-22T13:05:42;97858.00;;;19.50
19040;BMP180;9652;49.014;12.052;2024-03-22T13:08:08;97879.00;;;19.40
19040;BMP180;9652;49.014;12.052;2024-03-22T13:10:36;97878.00;;;19.40
19040;BMP180;9652;49.014;12.052;2024-03-22T13:13:03;97876.00;;;19.40
19040;BMP180;9652;49.014;12.052;2024-03-22T13:15:32;97865.00;;;19.50
19040;BMP180;9652;49.014;12.052;2024-03-22T13:17:59;97867.00;;;19.60
19040;BMP180;9652;49.014;12.052;2024-03-22T13:20:26;97853.00;;;19.70
19040;BMP180;9652;49.014;12.052;2024-03-22T13:22:52;97843.00;;;19.90
19040;BMP180;9652;49.014;12.052;2024-03-22T13:25:20;97845.00;;;20.00
19040;BMP180;9652;49.014;12.052;2024-03-22T13:27:46;97837.00;;;20.20
19040;BMP180;9652;49.014;12.052;2024-03-22T13:30:31;97836.00;;;20.40
19040;BMP180;9652;49.014;12.052;2024-03-22T13:32:58;97824.00;;;20.50
19040;BMP180;9652;49.014;12.052;2024-03-22T13:35:25;97825.00;;;20.70
19040;BMP180;9652;49.014;12.052;2024-03-22T13:37:52;97828.00;;;20.80
19040;BMP180;9652;49.014;12.052;2024-03-22T13:40:19;97823.00;;;20.90
19040;BMP180;9652;49.014;12.052;2024-03-22T13:42:46;97827.00;;;21.00
19040;BMP180;9652;49.014;12.052;2024-03-22T13:45:13;97819.00;;;21.10
19040;BMP180;9652;49.014;12.052;2024-03-22T13:47:41;97791.00;;;21.10
19040;BMP180;9652;49.014;12.052;2024-03-22T13:50:08;97804.00;;;21.10
19040;BMP180;9652;49.014;12.052;2024-03-22T13:52:35;97778.00;;;21.20
19040;BMP180;9652;49.014;12.052;2024-03-22T13:55:02;97804.00;;;21.30
19040;BMP180;9652;49.014;12.052;2024-03-22T13:57:30;97799.00;;;21.30
19040;BMP180;9652;49.014;12.052;2024-03-22T13:59:58;97788.00;;;21.40
19040;BMP180;9652;49.014;12.052;2024-03-22T14:02:38;97725.00;;;21.50
19040;BMP180;9652;49.014;12.052;2024-03-22T14:05:06;97794.00;;;21.50
19040;BMP180;9652;49.014;12.052;2024-03-22T14:07:34;97783.00;;;21.60
19040;BMP180;9652;49.014;12.052;2024-03-22T14:10:00;97782.00;;;21.60
19040;BMP180;9652;49.014;12.052;2024-03-22T14:12:28;97787.00;;;21.60
19040;BMP180;9652;49.014;12.052;2024-03-22T14:14:54;97786.00;;;21.60
19040;BMP180;9652;49.014;12.052;2024-03-22T14:17:21;97775.00;;;21.60